Time;durP1;ratioP1;P1;durP2;ratioP2;P2;SDS_P1;SDS_P2;PMS_P1;PMS_P2;Temp;Humidity;BMP_temperature;BMP_pressure;BME280_temperature;BME280_humidity;BME280_pressure;Samples;Min_cycle;Max_cycle;Signal;HPM_P1;HPM_P2
2021/08/14 00:01:43;;;;;;;4.30;3.67;;;;;;;;;;5007338;28;20186;-81
2021/08/14 00:04:09;;;;;;;5.97;3.77;;;;;;;;;;5009279;28;20213;-81
2021/08/14 00:06:35;;;;;;;5.43;4.50;;;;;;;;;;5023169;28;20276;-82
2021/08/14 00:09:02;;;;;;;5.43;4.10;;;;;;;;;;5007390;28;20191;-81
2021/08/14 00:11:28;;;;;;;5.67;4.47;;;;;;;;;;5020864;28;20225;-82
2021/08/14 00:13:55;;;;;;;6.20;3.97;;;;;;;;;;5022559;28;20291;-82
2021/08/14 00:16:21;;;;;;;5.37;4.23;;;;;;;;;;4987605;28;20217;-81
2021/08/14 00:18:48;;;;;;;7.40;4.10;;;;;;;;;;4988189;28;20615;-81
2021/08/14 00:21:14;;;;;;;5.53;4.97;;;;;;;;;;4986048;28;20626;-81
2021/08/14 00:23:40;;;;;;;5.63;4.40;;;;;;;;;;5018609;28;20279;-82
2021/08/14 00:26:06;;;;;;;4.37;3.93;;;;;;;;;;5017719;28;20185;-81
2021/08/14 00:28:32;;;;;;;5.90;4.73;;;;;;;;;;5005553;28;20182;-81
2021/08/14 00:30:59;;;;;;;6.27;4.47;;;;;;;;;;5002813;28;20209;-81
2021/08/14 00:33:25;;;;;;;5.80;4.03;;;;;;;;;;5017972;28;20179;-81
2021/08/14 00:35:51;;;;;;;5.87;4.30;;;;;;;;;;4999741;28;20178;-82
2021/08/14 00:38:17;;;;;;;4.87;4.30;;;;;;;;;;5000604;28;20630;-81
2021/08/14 00:40:43;;;;;;;5.80;3.90;;;;;;;;;;5017626;28;20321;-81
2021/08/14 00:43:10;;;;;;;10.50;5.03;;;;;;;;;;4999937;28;20280;-81
2021/08/14 00:45:43;;;;;;;6.37;4.57;;;;;;;;;;5001712;28;20170;-81
2021/08/14 00:48:10;;;;;;;4.77;4.30;;;;;;;;;;5001772;28;20244;-80
2021/08/14 00:50:37;;;;;;;5.83;4.50;;;;;;;;;;4996654;28;20718;-81
2021/08/14 00:53:03;;;;;;;5.13;4.10;;;;;;;;;;4998193;28;20210;-82
2021/08/14 00:55:29;;;;;;;6.97;4.50;;;;;;;;;;5027151;28;20237;-80
2021/08/14 00:57:56;;;;;;;4.67;3.93;;;;;;;;;;5044954;28;20232;-81
2021/08/14 01:00:23;;;;;;;5.60;4.00;;;;;;;;;;5018880;28;20185;-82
2021/08/14 01:02:49;;;;;;;9.10;4.90;;;;;;;;;;5017871;28;20182;-80
2021/08/14 01:05:17;;;;;;;5.30;4.27;;;;;;;;;;5019420;28;20661;-81
2021/08/14 01:07:43;;;;;;;4.87;3.73;;;;;;;;;;5018425;28;20209;-81
2021/08/14 01:10:09;;;;;;;5.33;4.17;;;;;;;;;;5015496;28;20189;-81
2021/08/14 01:12:36;;;;;;;5.53;4.00;;;;;;;;;;5018561;28;20182;-81
2021/08/14 01:15:03;;;;;;;5.50;4.07;;;;;;;;;;5003957;28;20182;-81
2021/08/14 01:17:29;;;;;;;5.17;3.80;;;;;;;;;;5037540;28;20170;-81
2021/08/14 01:19:55;;;;;;;4.40;3.97;;;;;;;;;;5037259;28;20182;-81
2021/08/14 01:22:21;;;;;;;4.90;3.77;;;;;;;;;;5035050;28;20523;-81
2021/08/14 01:24:47;;;;;;;5.50;4.70;;;;;;;;;;5019093;28;20233;-80
2021/08/14 01:27:14;;;;;;;4.40;4.00;;;;;;;;;;5036252;28;20253;-82
2021/08/14 01:29:42;;;;;;;4.73;3.83;;;;;;;;;;5021082;28;20269;-83
2021/08/14 01:32:09;;;;;;;4.33;3.93;;;;;;;;;;5020850;28;20224;-81
2021/08/14 01:34:41;;;;;;;6.00;4.80;;;;;;;;;;5017741;28;20190;-81
2021/08/14 01:37:08;;;;;;;4.70;4.03;;;;;;;;;;5018492;28;20215;-81
2021/08/14 01:39:35;;;;;;;4.40;4.00;;;;;;;;;;5017978;28;20178;-82
2021/08/14 01:42:02;;;;;;;6.00;4.20;;;;;;;;;;5018537;28;20247;-81
2021/08/14 01:44:30;;;;;;;4.90;4.40;;;;;;;;;;5016708;28;20299;-82
2021/08/14 01:46:56;;;;;;;5.80;4.07;;;;;;;;;;5017371;28;20206;-81
2021/08/14 01:49:22;;;;;;;5.37;4.87;;;;;;;;;;5017636;28;20182;-81
2021/08/14 01:51:49;;;;;;;6.57;3.97;;;;;;;;;;5017656;28;20265;-81
2021/08/14 01:54:15;;;;;;;5.47;4.67;;;;;;;;;;5019974;28;20249;-81
2021/08/14 01:56:42;;;;;;;5.90;4.43;;;;;;;;;;5036590;28;20495;-82
2021/08/14 01:59:08;;;;;;;4.80;4.10;;;;;;;;;;5018812;28;20248;-81
2021/08/14 02:01:34;;;;;;;5.53;4.60;;;;;;;;;;5017821;28;20183;-82
2021/08/14 02:04:01;;;;;;;4.73;4.20;;;;;;;;;;5018500;28;20220;-82
2021/08/14 02:06:27;;;;;;;6.57;4.97;;;;;;;;;;5034152;28;20249;-83
2021/08/14 02:08:54;;;;;;;6.47;4.20;;;;;;;;;;5016437;28;20289;-82
2021/08/14 02:11:29;;;;;;;5.07;3.97;;;;;;;;;;5050245;28;20187;-82
2021/08/14 02:13:55;;;;;;;5.33;4.30;;;;;;;;;;5035261;28;20186;-82
2021/08/14 02:16:22;;;;;;;5.97;3.93;;;;;;;;;;5016215;28;20174;-83
2021/08/14 02:18:48;;;;;;;6.90;4.23;;;;;;;;;;5015663;28;20182;-82
2021/08/14 02:21:14;;;;;;;4.47;4.07;;;;;;;;;;5015571;28;20191;-82
2021/08/14 02:23:40;;;;;;;6.05;4.32;;;;;;;;;;5015496;28;20650;-83
2021/08/14 02:26:07;;;;;;;5.60;3.93;;;;;;;;;;5016068;28;20171;-82
2021/08/14 02:28:34;;;;;;;5.03;3.93;;;;;;;;;;5015651;28;20257;-83
2021/08/14 02:31:00;;;;;;;4.97;3.93;;;;;;;;;;5011079;28;20227;-83
2021/08/14 02:33:27;;;;;;;5.00;4.20;;;;;;;;;;5010265;28;20183;-83
2021/08/14 02:35:53;;;;;;;4.83;4.33;;;;;;;;;;5015773;28;20201;-83
2021/08/14 02:38:19;;;;;;;5.20;4.40;;;;;;;;;;5014860;28;20201;-82
2021/08/14 02:40:46;;;;;;;5.83;4.50;;;;;;;;;;5031092;28;20277;-82
2021/08/14 02:43:13;;;;;;;4.67;4.17;;;;;;;;;;5024998;28;20300;-83
2021/08/14 02:45:39;;;;;;;6.23;4.77;;;;;;;;;;5016275;28;20191;-82
2021/08/14 02:48:05;;;;;;;5.13;3.97;;;;;;;;;;5015869;28;20185;-82
2021/08/14 02:50:32;;;;;;;4.67;4.10;;;;;;;;;;5015426;28;20191;-82
2021/08/14 02:52:58;;;;;;;5.50;4.93;;;;;;;;;;5031284;28;20508;-82
2021/08/14 02:55:24;;;;;;;5.57;4.10;;;;;;;;;;5046985;28;20976;-82
2021/08/14 02:57:51;;;;;;;5.17;4.40;;;;;;;;;;5036782;28;20578;-82
2021/08/14 03:00:17;;;;;;;4.73;4.07;;;;;;;;;;5015655;28;20185;-82
2021/08/14 03:02:43;;;;;;;6.50;4.83;;;;;;;;;;5032054;28;20166;-82
2021/08/14 03:05:09;;;;;;;4.73;4.10;;;;;;;;;;5002121;28;20519;-82
2021/08/14 03:07:35;;;;;;;4.90;4.27;;;;;;;;;;5003367;28;20267;-82
2021/08/14 03:10:01;;;;;;;7.00;5.00;;;;;;;;;;5015904;28;20178;-83
2021/08/14 03:12:27;;;;;;;5.87;4.53;;;;;;;;;;5033774;28;20596;-82
2021/08/14 03:14:54;;;;;;;5.13;3.80;;;;;;;;;;5015482;28;20182;-82
2021/08/14 03:17:20;;;;;;;5.00;4.50;;;;;;;;;;5033608;28;20184;-82
2021/08/14 03:19:46;;;;;;;5.30;4.53;;;;;;;;;;5014891;28;20182;-82
2021/08/14 03:22:12;;;;;;;8.57;4.40;;;;;;;;;;5015934;28;20178;-82
2021/08/14 03:24:38;;;;;;;5.17;4.40;;;;;;;;;;5016039;28;20209;-82
2021/08/14 03:27:05;;;;;;;4.50;4.03;;;;;;;;;;5033717;28;20230;-82
2021/08/14 03:29:31;;;;;;;4.77;4.27;;;;;;;;;;5016248;28;20177;-83
2021/08/14 03:31:57;;;;;;;5.93;4.63;;;;;;;;;;5016303;28;20229;-82
2021/08/14 03:34:23;;;;;;;5.70;4.87;;;;;;;;;;5016317;28;20335;-82
2021/08/14 03:36:50;;;;;;;6.53;5.00;;;;;;;;;;5017810;28;20196;-82
2021/08/14 03:39:16;;;;;;;5.23;4.43;;;;;;;;;;5009816;28;20185;-82
2021/08/14 03:41:42;;;;;;;5.00;4.17;;;;;;;;;;5015859;28;20175;-82
2021/08/14 03:44:08;;;;;;;4.80;4.30;;;;;;;;;;5015154;28;20209;-82
2021/08/14 03:46:34;;;;;;;6.30;4.90;;;;;;;;;;5033374;28;20185;-82
2021/08/14 03:49:00;;;;;;;6.80;4.80;;;;;;;;;;5015480;28;20178;-82
2021/08/14 03:51:26;;;;;;;6.13;4.53;;;;;;;;;;5033944;28;20166;-82
2021/08/14 03:53:52;;;;;;;6.87;4.37;;;;;;;;;;5036954;28;20205;-81
2021/08/14 03:56:18;;;;;;;8.43;5.10;;;;;;;;;;5036822;28;20220;-82
2021/08/14 03:58:44;;;;;;;6.90;5.17;;;;;;;;;;5016010;28;20566;-81
2021/08/14 04:01:10;;;;;;;5.63;4.53;;;;;;;;;;5015931;28;20186;-82
2021/08/14 04:03:36;;;;;;;6.40;4.30;;;;;;;;;;5012051;28;20202;-82
2021/08/14 04:06:02;;;;;;;5.23;4.50;;;;;;;;;;5015150;28;20535;-82
2021/08/14 04:08:28;;;;;;;5.57;4.33;;;;;;;;;;5033159;28;20241;-82
2021/08/14 04:10:54;;;;;;;8.70;5.30;;;;;;;;;;5035761;28;20208;-81
2021/08/14 04:13:20;;;;;;;5.97;4.53;;;;;;;;;;5034858;28;20193;-81
2021/08/14 04:15:46;;;;;;;5.20;4.33;;;;;;;;;;5016540;28;20193;-82
2021/08/14 04:18:13;;;;;;;6.33;4.13;;;;;;;;;;5034389;28;20224;-82
2021/08/14 04:20:39;;;;;;;5.63;4.90;;;;;;;;;;5015882;28;20186;-81
2021/08/14 04:23:05;;;;;;;6.53;5.07;;;;;;;;;;5032248;28;20290;-81
2021/08/14 04:25:31;;;;;;;7.53;4.50;;;;;;;;;;5031555;28;20505;-81
2021/08/14 04:27:57;;;;;;;5.03;4.53;;;;;;;;;;5015348;28;20201;-82
2021/08/14 04:30:23;;;;;;;5.23;4.73;;;;;;;;;;5018315;28;20220;-81
2021/08/14 04:32:51;;;;;;;5.17;4.67;;;;;;;;;;5018396;28;20241;-82
2021/08/14 04:35:17;;;;;;;5.63;4.70;;;;;;;;;;5017686;28;20186;-81
2021/08/14 04:37:43;;;;;;;5.00;4.30;;;;;;;;;;5034006;28;20170;-82
2021/08/14 04:40:11;;;;;;;5.80;4.80;;;;;;;;;;5017882;28;20284;-81
2021/08/14 04:42:37;;;;;;;5.30;4.70;;;;;;;;;;5001890;28;20212;-81
2021/08/14 04:45:04;;;;;;;6.73;4.90;;;;;;;;;;5017702;28;20312;-82
2021/08/14 04:47:31;;;;;;;7.13;4.10;;;;;;;;;;5034154;28;20174;-82
2021/08/14 04:49:57;;;;;;;8.27;5.10;;;;;;;;;;5017460;28;20269;-82
2021/08/14 04:52:23;;;;;;;5.73;5.10;;;;;;;;;;5017654;28;20193;-82
2021/08/14 04:54:49;;;;;;;5.60;4.57;;;;;;;;;;5016812;28;20249;-82
2021/08/14 04:57:16;;;;;;;5.60;4.20;;;;;;;;;;5016024;28;20216;-82
2021/08/14 04:59:42;;;;;;;5.77;4.50;;;;;;;;;;5016623;28;20178;-82
2021/08/14 05:02:09;;;;;;;6.63;5.27;;;;;;;;;;5018657;28;20202;-82
2021/08/14 05:04:35;;;;;;;6.00;4.43;;;;;;;;;;5016803;28;20197;-82
2021/08/14 05:07:01;;;;;;;5.43;4.47;;;;;;;;;;5017238;28;20202;-82
2021/08/14 05:09:27;;;;;;;6.03;4.77;;;;;;;;;;5022107;28;20395;-83
2021/08/14 05:11:53;;;;;;;5.23;4.73;;;;;;;;;;5033512;28;20181;-82
2021/08/14 05:14:19;;;;;;;5.67;4.40;;;;;;;;;;5016064;28;20186;-82
2021/08/14 05:16:46;;;;;;;6.93;4.60;;;;;;;;;;5016767;28;20332;-82
2021/08/14 05:19:12;;;;;;;7.27;4.33;;;;;;;;;;5016557;28;20277;-82
2021/08/14 05:21:38;;;;;;;4.67;4.27;;;;;;;;;;5016551;28;20186;-82
2021/08/14 05:24:04;;;;;;;6.20;4.73;;;;;;;;;;5017190;28;20201;-82
2021/08/14 05:26:31;;;;;;;5.93;4.60;;;;;;;;;;5017215;28;20187;-83
2021/08/14 05:28:57;;;;;;;5.20;4.27;;;;;;;;;;5017287;28;20189;-82
2021/08/14 05:31:25;;;;;;;6.37;4.67;;;;;;;;;;5016499;28;20290;-83
2021/08/14 05:33:51;;;;;;;5.13;4.63;;;;;;;;;;5015987;28;20178;-82
2021/08/14 05:36:17;;;;;;;5.57;4.40;;;;;;;;;;5015575;28;20181;-82
2021/08/14 05:38:43;;;;;;;9.23;4.80;;;;;;;;;;5035347;28;20178;-83
2021/08/14 05:41:10;;;;;;;5.90;4.80;;;;;;;;;;5021142;28;20193;-82
2021/08/14 05:43:36;;;;;;;5.03;4.53;;;;;;;;;;4997161;28;20202;-82
2021/08/14 05:46:02;;;;;;;5.53;4.37;;;;;;;;;;5021928;28;20173;-82
2021/08/14 05:48:28;;;;;;;6.77;4.50;;;;;;;;;;5015807;28;20174;-82
2021/08/14 05:50:54;;;;;;;6.10;5.23;;;;;;;;;;4996232;28;20277;-82
2021/08/14 05:53:20;;;;;;;5.77;4.80;;;;;;;;;;4997003;28;20187;-82
2021/08/14 05:55:46;;;;;;;5.00;4.50;;;;;;;;;;5031340;28;20233;-82
2021/08/14 05:58:13;;;;;;;4.83;4.20;;;;;;;;;;5050674;28;20173;-83
2021/08/14 06:00:39;;;;;;;5.93;4.67;;;;;;;;;;5017273;28;20204;-83
2021/08/14 06:03:05;;;;;;;6.93;4.70;;;;;;;;;;5010637;28;20179;-82
2021/08/14 06:05:31;;;;;;;5.40;4.40;;;;;;;;;;5026212;28;20182;-82
2021/08/14 06:07:57;;;;;;;4.93;4.37;;;;;;;;;;5042528;28;20687;-82
2021/08/14 06:10:23;;;;;;;5.47;4.33;;;;;;;;;;5029185;28;20277;-84
2021/08/14 06:12:49;;;;;;;4.73;4.10;;;;;;;;;;5022445;28;20252;-84
2021/08/14 06:15:15;;;;;;;4.87;4.30;;;;;;;;;;5013646;28;20178;-84
2021/08/14 06:17:42;;;;;;;6.63;4.13;;;;;;;;;;5014868;28;20531;-84
2021/08/14 06:20:11;;;;;;;5.33;4.20;;;;;;;;;;5011130;28;20547;-83
2021/08/14 06:22:38;;;;;;;6.17;4.80;;;;;;;;;;5009360;28;20186;-84
2021/08/14 06:25:04;;;;;;;7.53;4.30;;;;;;;;;;5013247;28;20479;-83
2021/08/14 06:27:30;;;;;;;5.33;4.27;;;;;;;;;;5011284;28;20189;-83
2021/08/14 06:29:56;;;;;;;6.10;4.37;;;;;;;;;;5030622;28;20353;-83
2021/08/14 06:32:22;;;;;;;7.77;4.20;;;;;;;;;;5035279;28;20184;-83
2021/08/14 06:34:48;;;;;;;7.70;5.07;;;;;;;;;;5028637;28;20209;-83
2021/08/14 06:37:14;;;;;;;6.97;4.80;;;;;;;;;;5029045;28;20193;-83
2021/08/14 06:39:41;;;;;;;7.20;4.47;;;;;;;;;;5031933;28;20759;-83
2021/08/14 06:42:07;;;;;;;6.00;4.40;;;;;;;;;;5015963;28;20185;-83
2021/08/14 06:44:34;;;;;;;5.10;4.60;;;;;;;;;;5020992;28;20549;-83
2021/08/14 06:47:00;;;;;;;7.23;4.83;;;;;;;;;;5033692;28;20514;-83
2021/08/14 06:49:26;;;;;;;5.93;4.70;;;;;;;;;;5015864;28;20683;-83
2021/08/14 06:51:52;;;;;;;7.27;4.70;;;;;;;;;;5015454;28;20178;-83
2021/08/14 06:54:19;;;;;;;6.93;5.07;;;;;;;;;;5014571;28;20221;-83
2021/08/14 06:56:45;;;;;;;5.80;4.70;;;;;;;;;;5013686;28;20262;-83
2021/08/14 06:59:11;;;;;;;4.97;4.43;;;;;;;;;;5009017;28;20186;-83
2021/08/14 07:01:37;;;;;;;6.63;4.33;;;;;;;;;;5030083;28;20244;-83
2021/08/14 07:04:03;;;;;;;5.83;4.40;;;;;;;;;;5014522;28;20198;-83
2021/08/14 07:06:29;;;;;;;6.37;4.57;;;;;;;;;;5030781;28;20198;-85
2021/08/14 07:08:55;;;;;;;7.00;4.00;;;;;;;;;;5014673;28;20178;-84
2021/08/14 07:11:22;;;;;;;6.27;4.53;;;;;;;;;;5015523;28;20486;-84
2021/08/14 07:13:48;;;;;;;7.50;4.20;;;;;;;;;;5012810;28;20213;-84
2021/08/14 07:16:15;;;;;;;7.90;5.47;;;;;;;;;;5032177;28;20186;-85
2021/08/14 07:18:41;;;;;;;5.97;4.43;;;;;;;;;;5015726;28;20205;-84
2021/08/14 07:21:07;;;;;;;6.20;4.33;;;;;;;;;;5014190;28;20182;-85
2021/08/14 07:23:33;;;;;;;6.30;4.33;;;;;;;;;;5030198;28;20189;-84
2021/08/14 07:25:59;;;;;;;4.87;4.27;;;;;;;;;;5034763;28;20649;-84
2021/08/14 07:28:26;;;;;;;12.23;4.80;;;;;;;;;;5014595;28;20182;-84
2021/08/14 07:30:52;;;;;;;5.73;3.83;;;;;;;;;;5014457;28;20200;-82
2021/08/14 07:33:18;;;;;;;6.60;4.00;;;;;;;;;;5015081;28;20668;-83
2021/08/14 07:35:44;;;;;;;6.53;4.10;;;;;;;;;;5014271;28;20579;-83
2021/08/14 07:38:11;;;;;;;8.87;3.90;;;;;;;;;;5033149;28;20173;-83
2021/08/14 07:40:37;;;;;;;9.17;4.40;;;;;;;;;;5012699;28;20274;-79
2021/08/14 07:43:03;;;;;;;10.57;4.37;;;;;;;;;;5009979;28;20194;-78
2021/08/14 07:45:30;;;;;;;6.90;3.80;;;;;;;;;;5029823;28;20881;-78
2021/08/14 07:47:56;;;;;;;7.07;4.03;;;;;;;;;;5030779;28;20201;-78
2021/08/14 07:50:29;;;;;;;8.27;3.77;;;;;;;;;;5011287;28;20225;-78
2021/08/14 07:52:56;;;;;;;12.68;4.40;;;;;;;;;;5012324;28;20405;-78
2021/08/14 07:55:28;;;;;;;9.73;4.17;;;;;;;;;;5013593;28;20245;-78
2021/08/14 07:57:54;;;;;;;10.53;3.93;;;;;;;;;;5025079;28;20240;-78
2021/08/14 08:00:22;;;;;;;8.43;3.73;;;;;;;;;;5007261;28;20228;-78
2021/08/14 08:02:48;;;;;;;5.67;2.97;;;;;;;;;;5019741;28;20259;-78
2021/08/14 08:05:14;;;;;;;8.97;3.87;;;;;;;;;;5039179;28;20234;-78
2021/08/14 08:07:43;;;;;;;10.10;3.80;;;;;;;;;;5043934;28;20700;-79
2021/08/14 08:10:09;;;;;;;9.10;3.40;;;;;;;;;;5036973;28;20185;-79
2021/08/14 08:12:36;;;;;;;10.70;4.00;;;;;;;;;;5018300;28;20178;-79
2021/08/14 08:15:02;;;;;;;5.33;3.30;;;;;;;;;;5035660;28;20661;-78
2021/08/14 08:17:30;;;;;;;7.60;3.40;;;;;;;;;;5018325;28;20175;-79
2021/08/14 08:19:56;;;;;;;6.63;3.60;;;;;;;;;;5015610;28;20235;-78
2021/08/14 08:22:22;;;;;;;7.43;3.87;;;;;;;;;;5033140;28;20177;-78
2021/08/14 08:24:48;;;;;;;13.00;4.57;;;;;;;;;;5033143;28;20269;-79
2021/08/14 08:27:14;;;;;;;5.00;3.07;;;;;;;;;;5014838;28;20182;-79
2021/08/14 08:29:40;;;;;;;9.60;3.13;;;;;;;;;;5032941;28;20189;-79
2021/08/14 08:32:07;;;;;;;7.10;3.50;;;;;;;;;;5033428;28;20301;-78
2021/08/14 08:34:33;;;;;;;5.13;3.07;;;;;;;;;;5011951;28;20202;-79
2021/08/14 08:36:59;;;;;;;8.52;4.03;;;;;;;;;;5014292;28;20428;-79
2021/08/14 08:39:25;;;;;;;6.20;3.43;;;;;;;;;;5014861;28;20186;-78
2021/08/14 08:41:51;;;;;;;5.47;3.57;;;;;;;;;;5012379;28;20198;-79
2021/08/14 08:44:18;;;;;;;8.57;3.43;;;;;;;;;;5032611;28;20197;-78
2021/08/14 08:46:46;;;;;;;8.60;3.10;;;;;;;;;;5032592;28;20224;-79
2021/08/14 08:49:13;;;;;;;6.83;3.13;;;;;;;;;;5033561;28;20189;-78
2021/08/14 08:51:40;;;;;;;7.00;2.93;;;;;;;;;;5033267;28;20632;-79
2021/08/14 08:54:06;;;;;;;5.30;2.67;;;;;;;;;;5015777;28;20218;-80
2021/08/14 08:56:32;;;;;;;5.33;2.97;;;;;;;;;;5016288;28;20254;-79
2021/08/14 08:58:58;;;;;;;4.80;2.70;;;;;;;;;;5015614;28;20386;-79
2021/08/14 09:01:24;;;;;;;8.57;3.07;;;;;;;;;;5015524;28;20192;-79
2021/08/14 09:03:50;;;;;;;6.27;2.90;;;;;;;;;;5015668;28;20293;-78
2021/08/14 09:06:19;;;;;;;8.27;3.00;;;;;;;;;;5011799;28;20225;-78
2021/08/14 09:09:04;;;;;;;4.77;2.70;;;;;;;;;;5012323;28;20261;-79
2021/08/14 09:11:30;;;;;;;6.17;2.90;;;;;;;;;;5012551;28;20188;-80
2021/08/14 09:14:06;;;;;;;6.17;3.10;;;;;;;;;;5008679;28;20240;-79
2021/08/14 09:16:32;;;;;;;6.83;3.57;;;;;;;;;;5015483;28;20286;-79
2021/08/14 09:18:59;;;;;;;9.30;3.20;;;;;;;;;;5015502;28;20194;-79
2021/08/14 09:21:29;;;;;;;4.67;2.47;;;;;;;;;;5029721;28;20199;-79
2021/08/14 09:23:55;;;;;;;3.97;2.90;;;;;;;;;;5015451;28;20211;-79
2021/08/14 09:26:21;;;;;;;4.33;2.90;;;;;;;;;;5014040;28;20200;-79
2021/08/14 09:29:01;;;;;;;6.37;2.67;;;;;;;;;;5034509;28;20184;-80
2021/08/14 09:31:28;;;;;;;5.33;2.60;;;;;;;;;;4999792;28;20310;-79
2021/08/14 09:33:54;;;;;;;7.17;2.80;;;;;;;;;;5013585;28;20189;-79
2021/08/14 09:36:21;;;;;;;4.37;2.50;;;;;;;;;;5015297;28;20180;-79
2021/08/14 09:38:47;;;;;;;3.63;2.57;;;;;;;;;;5034281;28;20199;-79
2021/08/14 09:41:17;;;;;;;5.63;2.30;;;;;;;;;;5050069;28;20548;-79
2021/08/14 09:43:44;;;;;;;3.30;2.30;;;;;;;;;;5049504;28;20199;-79
2021/08/14 09:46:10;;;;;;;5.20;2.70;;;;;;;;;;5050119;28;20191;-79
2021/08/14 09:48:36;;;;;;;5.40;2.27;;;;;;;;;;5033446;28;20201;-79
2021/08/14 09:51:03;;;;;;;4.53;2.30;;;;;;;;;;5032498;28;20185;-79
2021/08/14 09:53:29;;;;;;;4.37;2.30;;;;;;;;;;5035288;28;20257;-85
2021/08/14 09:56:09;;;;;;;7.03;2.90;;;;;;;;;;5014091;28;20224;-85
2021/08/14 09:58:36;;;;;;;5.87;2.50;;;;;;;;;;5016646;28;20181;-82
2021/08/14 10:01:03;;;;;;;4.23;2.07;;;;;;;;;;5016380;28;20223;-82
2021/08/14 10:03:30;;;;;;;3.63;2.03;;;;;;;;;;5015978;28;20257;-81
2021/08/14 10:05:56;;;;;;;4.90;2.83;;;;;;;;;;5030078;28;20181;-81
2021/08/14 10:08:22;;;;;;;4.13;2.17;;;;;;;;;;5036249;28;20231;-81
2021/08/14 10:10:48;;;;;;;3.57;2.20;;;;;;;;;;5016631;28;20269;-81
2021/08/14 10:13:15;;;;;;;3.57;2.27;;;;;;;;;;5032924;28;20779;-82
2021/08/14 10:15:41;;;;;;;3.83;2.30;;;;;;;;;;5034077;28;20177;-81
2021/08/14 10:18:07;;;;;;;3.70;2.17;;;;;;;;;;5016659;28;20181;-81
2021/08/14 10:20:33;;;;;;;4.87;2.63;;;;;;;;;;5015473;28;20178;-81
2021/08/14 10:23:07;;;;;;;3.20;2.43;;;;;;;;;;5034015;28;20598;-81
2021/08/14 10:25:34;;;;;;;4.17;2.30;;;;;;;;;;5032344;28;20948;-81
2021/08/14 10:28:01;;;;;;;4.10;2.23;;;;;;;;;;5049555;28;20248;-81
2021/08/14 10:30:50;;;;;;;3.83;2.40;;;;;;;;;;5032895;28;20178;-81
2021/08/14 10:33:35;;;;;;;3.87;2.40;;;;;;;;;;5033722;28;20509;-81
2021/08/14 10:36:17;;;;;;;6.33;2.87;;;;;;;;;;5033672;28;20230;-82
2021/08/14 10:38:43;;;;;;;3.13;2.33;;;;;;;;;;5017100;28;20204;-82
2021/08/14 10:41:09;;;;;;;4.25;2.28;;;;;;;;;;5034355;28;20412;-82
2021/08/14 10:43:57;;;;;;;3.77;2.70;;;;;;;;;;5019833;28;20251;-82
2021/08/14 10:46:33;;;;;;;4.33;2.40;;;;;;;;;;5049451;28;20186;-81
2021/08/14 10:48:59;;;;;;;3.93;1.90;;;;;;;;;;5022195;28;20178;-81
2021/08/14 10:51:44;;;;;;;3.57;2.50;;;;;;;;;;5020713;28;20243;-82
2021/08/14 10:54:10;;;;;;;5.07;2.47;;;;;;;;;;5015647;28;20705;-82
2021/08/14 10:57:03;;;;;;;3.87;2.53;;;;;;;;;;5017547;28;20179;-82
2021/08/14 10:59:38;;;;;;;5.03;2.80;;;;;;;;;;4989349;28;20191;-82
2021/08/14 11:02:10;;;;;;;4.20;2.87;;;;;;;;;;5012771;28;20204;-82
2021/08/14 11:04:36;;;;;;;6.47;3.20;;;;;;;;;;5014875;28;20199;-82
2021/08/14 11:07:20;;;;;;;5.77;2.77;;;;;;;;;;4997604;28;20198;-82
2021/08/14 11:09:53;;;;;;;3.33;2.40;;;;;;;;;;4998150;28;20180;-82
2021/08/14 11:12:32;;;;;;;5.27;2.50;;;;;;;;;;5016751;28;20167;-83
2021/08/14 11:15:15;;;;;;;3.37;2.33;;;;;;;;;;4998667;28;20184;-82
2021/08/14 11:17:41;;;;;;;4.10;2.80;;;;;;;;;;4999780;28;20200;-82
2021/08/14 11:20:20;;;;;;;4.03;2.30;;;;;;;;;;5014505;28;20201;-83
2021/08/14 11:22:53;;;;;;;3.00;2.40;;;;;;;;;;4997690;28;20189;-82
2021/08/14 11:25:19;;;;;;;3.87;2.23;;;;;;;;;;5010323;28;20204;-83
2021/08/14 11:27:57;;;;;;;2.93;2.43;;;;;;;;;;5029713;28;20190;-82
2021/08/14 11:30:26;;;;;;;7.70;2.90;;;;;;;;;;4998201;28;20176;-82
2021/08/14 11:32:52;;;;;;;3.43;2.17;;;;;;;;;;5014208;28;20521;-83
2021/08/14 11:35:20;;;;;;;4.33;3.00;;;;;;;;;;4996816;28;20259;-82
2021/08/14 11:37:50;;;;;;;4.37;2.73;;;;;;;;;;4999440;28;20273;-82
2021/08/14 11:40:16;;;;;;;4.53;2.75;;;;;;;;;;4999166;28;21291;-82
2021/08/14 11:42:53;;;;;;;5.70;2.87;;;;;;;;;;5001215;28;20630;-83
2021/08/14 11:45:20;;;;;;;13.93;2.53;;;;;;;;;;5012026;28;20565;-83
2021/08/14 11:47:46;;;;;;;4.17;2.77;;;;;;;;;;5033919;28;20177;-83
2021/08/14 11:50:12;;;;;;;4.63;2.73;;;;;;;;;;5022798;28;20195;-83
2021/08/14 11:52:38;;;;;;;3.37;2.60;;;;;;;;;;5000961;28;20283;-83
2021/08/14 11:55:08;;;;;;;3.43;2.57;;;;;;;;;;5016432;28;20262;-83
2021/08/14 11:57:38;;;;;;;3.73;2.87;;;;;;;;;;5020574;28;20537;-82
2021/08/14 12:00:23;;;;;;;4.97;2.90;;;;;;;;;;5039242;28;20339;-82
2021/08/14 12:03:03;;;;;;;4.83;2.60;;;;;;;;;;5046854;28;20203;-82
2021/08/14 12:05:30;;;;;;;5.00;2.50;;;;;;;;;;5013814;28;20553;-83
2021/08/14 12:07:59;;;;;;;3.67;2.50;;;;;;;;;;5019859;28;20602;-83
2021/08/14 12:10:25;;;;;;;2.87;2.23;;;;;;;;;;5020057;28;20206;-82
2021/08/14 12:12:57;;;;;;;4.63;3.07;;;;;;;;;;5019718;28;20192;-82
2021/08/14 12:15:34;;;;;;;4.33;2.93;;;;;;;;;;5021720;28;20188;-82
2021/08/14 12:18:00;;;;;;;3.87;2.87;;;;;;;;;;5037942;28;20652;-82
2021/08/14 12:20:33;;;;;;;4.60;3.20;;;;;;;;;;5035343;28;20638;-82
2021/08/14 12:23:18;;;;;;;4.63;3.00;;;;;;;;;;5019493;28;20285;-82
2021/08/14 12:25:51;;;;;;;4.40;2.97;;;;;;;;;;5019414;28;20181;-82
2021/08/14 12:28:17;;;;;;;4.30;2.50;;;;;;;;;;5019075;28;20276;-82
2021/08/14 12:30:43;;;;;;;4.23;2.60;;;;;;;;;;5018775;28;20182;-82
2021/08/14 12:33:23;;;;;;;3.97;2.60;;;;;;;;;;5036705;28;20174;-82
2021/08/14 12:36:05;;;;;;;4.10;2.57;;;;;;;;;;5029779;28;20626;-81
2021/08/14 12:38:32;;;;;;;3.13;2.63;;;;;;;;;;5018561;28;20166;-82
2021/08/14 12:41:13;;;;;;;4.57;2.53;;;;;;;;;;4999516;28;20207;-83
2021/08/14 12:43:42;;;;;;;4.57;2.37;;;;;;;;;;5031524;28;20190;-82
2021/08/14 12:46:16;;;;;;;4.53;2.40;;;;;;;;;;5019111;28;20188;-82
2021/08/14 12:49:02;;;;;;;4.33;2.67;;;;;;;;;;5018735;28;20481;-82
2021/08/14 12:51:28;;;;;;;4.03;2.73;;;;;;;;;;5018396;28;20212;-81
2021/08/14 12:53:54;;;;;;;3.90;2.77;;;;;;;;;;5018946;28;20192;-82
2021/08/14 12:56:20;;;;;;;5.60;3.03;;;;;;;;;;5019251;28;20180;-82
2021/08/14 12:58:46;;;;;;;4.67;2.97;;;;;;;;;;5018749;28;20208;-82
2021/08/14 13:01:21;;;;;;;3.93;2.80;;;;;;;;;;5019343;28;20199;-82
2021/08/14 13:03:47;;;;;;;3.70;2.47;;;;;;;;;;5036684;28;20194;-82
2021/08/14 13:06:13;;;;;;;4.23;2.57;;;;;;;;;;5034996;28;20202;-82
2021/08/14 13:08:40;;;;;;;3.60;2.53;;;;;;;;;;5032929;28;20183;-82
2021/08/14 13:11:06;;;;;;;4.80;2.97;;;;;;;;;;5018994;28;20178;-82
2021/08/14 13:13:32;;;;;;;5.23;2.90;;;;;;;;;;5037391;28;20171;-82
2021/08/14 13:15:58;;;;;;;4.17;2.90;;;;;;;;;;5033415;28;20276;-82
2021/08/14 13:18:24;;;;;;;5.53;2.80;;;;;;;;;;5036025;28;20883;-81
2021/08/14 13:20:50;;;;;;;3.13;2.53;;;;;;;;;;5034487;28;20196;-82
2021/08/14 13:23:16;;;;;;;5.23;3.10;;;;;;;;;;5017232;28;20269;-82
2021/08/14 13:25:42;;;;;;;4.00;2.90;;;;;;;;;;5017362;28;20259;-82
2021/08/14 13:28:09;;;;;;;4.67;2.93;;;;;;;;;;5033609;28;20178;-82
2021/08/14 13:30:35;;;;;;;4.93;3.10;;;;;;;;;;5034947;28;20176;-82
2021/08/14 13:33:01;;;;;;;4.60;3.30;;;;;;;;;;5034879;28;20171;-82
2021/08/14 13:35:27;;;;;;;4.50;2.90;;;;;;;;;;5034132;28;20182;-82
2021/08/14 13:37:53;;;;;;;3.63;2.87;;;;;;;;;;5016819;28;20190;-82
2021/08/14 13:40:20;;;;;;;4.00;2.70;;;;;;;;;;5034069;28;20174;-82
2021/08/14 13:42:46;;;;;;;7.73;3.23;;;;;;;;;;5015945;28;20197;-82
2021/08/14 13:45:13;;;;;;;5.20;3.33;;;;;;;;;;5026833;28;20182;-82
2021/08/14 13:47:39;;;;;;;5.87;3.60;;;;;;;;;;5034300;28;20177;-82
2021/08/14 13:50:06;;;;;;;4.97;3.63;;;;;;;;;;5033073;28;20184;-82
2021/08/14 13:52:32;;;;;;;5.30;3.57;;;;;;;;;;5034130;28;20174;-82
2021/08/14 13:54:58;;;;;;;4.53;3.17;;;;;;;;;;5033291;28;20224;-82
2021/08/14 13:57:24;;;;;;;4.43;2.93;;;;;;;;;;5016245;28;20629;-82
2021/08/14 13:59:50;;;;;;;5.60;3.00;;;;;;;;;;5004616;28;20197;-83
2021/08/14 14:02:17;;;;;;;5.03;3.40;;;;;;;;;;5000250;28;20185;-82
2021/08/14 14:04:43;;;;;;;4.07;3.10;;;;;;;;;;5015633;28;20285;-82
2021/08/14 14:07:10;;;;;;;5.20;3.57;;;;;;;;;;5016718;28;20304;-83
2021/08/14 14:09:36;;;;;;;5.50;3.30;;;;;;;;;;5015319;28;20181;-82
2021/08/14 14:12:02;;;;;;;3.37;3.07;;;;;;;;;;5031410;28;20185;-83
2021/08/14 14:14:28;;;;;;;7.03;3.37;;;;;;;;;;5031514;28;20222;-83
2021/08/14 14:16:54;;;;;;;4.53;3.33;;;;;;;;;;5015921;28;20237;-83
2021/08/14 14:19:21;;;;;;;7.03;2.83;;;;;;;;;;5014998;28;20200;-83
2021/08/14 14:21:47;;;;;;;7.00;3.47;;;;;;;;;;5032013;28;20180;-83
2021/08/14 14:24:13;;;;;;;4.67;3.43;;;;;;;;;;5032714;28;20230;-83
2021/08/14 14:26:39;;;;;;;3.40;3.10;;;;;;;;;;5032187;28;20173;-83
2021/08/14 14:29:05;;;;;;;6.63;3.90;;;;;;;;;;5031917;28;20199;-83
2021/08/14 14:31:31;;;;;;;3.67;3.27;;;;;;;;;;5032704;28;20257;-83
2021/08/14 14:33:57;;;;;;;3.70;3.40;;;;;;;;;;5031869;28;20526;-83
2021/08/14 14:36:23;;;;;;;5.10;3.63;;;;;;;;;;5016118;28;20208;-84
2021/08/14 14:38:49;;;;;;;5.50;3.73;;;;;;;;;;5008083;28;20188;-83
2021/08/14 14:41:15;;;;;;;4.17;3.30;;;;;;;;;;5015842;28;20209;-83
2021/08/14 14:43:41;;;;;;;5.30;3.27;;;;;;;;;;5015652;28;20297;-82
2021/08/14 14:46:08;;;;;;;4.93;3.60;;;;;;;;;;5015634;28;20542;-83